sensor_id;sensor_type;location;lat;lon;timestamp;P1;durP1;ratioP1;P2;durP2;ratioP2
17380;SDS011;8808;52.478;13.378;2023-07-13T00:01:45;5.97;;;2.50;;
17380;SDS011;8808;52.478;13.378;2023-07-13T00:04:15;4.10;;;2.28;;
17380;SDS011;8808;52.478;13.378;2023-07-13T00:06:42;3.83;;;2.00;;
17380;SDS011;8808;52.478;13.378;2023-07-13T00:09:11;3.88;;;2.25;;
17380;SDS011;8808;52.478;13.378;2023-07-13T00:11:38;6.07;;;2.10;;
17380;SDS011;8808;52.478;13.378;2023-07-13T00:14:05;4.70;;;2.25;;
17380;SDS011;8808;52.478;13.378;2023-07-13T00:16:33;4.60;;;2.20;;
17380;SDS011;8808;52.478;13.378;2023-07-13T00:19:00;3.42;;;2.08;;
17380;SDS011;8808;52.478;13.378;2023-07-13T00:21:27;4.32;;;2.00;;
17380;SDS011;8808;52.478;13.378;2023-07-13T00:23:54;3.05;;;1.92;;
17380;SDS011;8808;52.478;13.378;2023-07-13T00:26:23;3.55;;;2.00;;
17380;SDS011;8808;52.478;13.378;2023-07-13T00:28:50;3.75;;;2.08;;
17380;SDS011;8808;52.478;13.378;2023-07-13T00:31:16;5.15;;;2.05;;
17380;SDS011;8808;52.478;13.378;2023-07-13T00:33:43;5.10;;;2.08;;
17380;SDS011;8808;52.478;13.378;2023-07-13T00:36:11;3.70;;;2.10;;
17380;SDS011;8808;52.478;13.378;2023-07-13T00:38:38;4.18;;;2.17;;
17380;SDS011;8808;52.478;13.378;2023-07-13T00:41:05;3.60;;;2.10;;
17380;SDS011;8808;52.478;13.378;2023-07-13T00:43:33;4.00;;;2.00;;
17380;SDS011;8808;52.478;13.378;2023-07-13T00:48:52;4.28;;;2.10;;
17380;SDS011;8808;52.478;13.378;2023-07-13T00:51:23;10.88;;;2.50;;
17380;SDS011;8808;52.478;13.378;2023-07-13T00:53:56;4.22;;;2.10;;
17380;SDS011;8808;52.478;13.378;2023-07-13T00:56:26;3.75;;;2.22;;
17380;SDS011;8808;52.478;13.378;2023-07-13T00:58:56;4.93;;;2.25;;
17380;SDS011;8808;52.478;13.378;2023-07-13T01:04:01;2.93;;;2.10;;
17380;SDS011;8808;52.478;13.378;2023-07-13T01:06:28;5.45;;;2.10;;
17380;SDS011;8808;52.478;13.378;2023-07-13T01:08:55;5.45;;;2.30;;
17380;SDS011;8808;52.478;13.378;2023-07-13T01:11:24;7.53;;;2.50;;
17380;SDS011;8808;52.478;13.378;2023-07-13T01:13:51;4.20;;;2.07;;
17380;SDS011;8808;52.478;13.378;2023-07-13T01:16:22;5.32;;;2.15;;
17380;SDS011;8808;52.478;13.378;2023-07-13T01:18:51;3.77;;;2.50;;
17380;SDS011;8808;52.478;13.378;2023-07-13T01:21:19;3.30;;;2.60;;
17380;SDS011;8808;52.478;13.378;2023-07-13T01:23:46;3.10;;;2.10;;
17380;SDS011;8808;52.478;13.378;2023-07-13T01:26:14;5.10;;;2.37;;
17380;SDS011;8808;52.478;13.378;2023-07-13T01:28:41;4.20;;;2.10;;
17380;SDS011;8808;52.478;13.378;2023-07-13T01:31:08;3.70;;;2.27;;
17380;SDS011;8808;52.478;13.378;2023-07-13T01:33:36;5.50;;;2.23;;
17380;SDS011;8808;52.478;13.378;2023-07-13T01:36:04;5.37;;;2.17;;
17380;SDS011;8808;52.478;13.378;2023-07-13T01:38:33;7.53;;;2.17;;
17380;SDS011;8808;52.478;13.378;2023-07-13T01:41:01;3.43;;;2.40;;
17380;SDS011;8808;52.478;13.378;2023-07-13T01:43:28;6.57;;;2.30;;
17380;SDS011;8808;52.478;13.378;2023-07-13T01:45:55;4.23;;;2.43;;
17380;SDS011;8808;52.478;13.378;2023-07-13T01:48:22;4.47;;;2.70;;
17380;SDS011;8808;52.478;13.378;2023-07-13T01:50:50;5.30;;;2.33;;
17380;SDS011;8808;52.478;13.378;2023-07-13T01:53:17;6.23;;;2.50;;
17380;SDS011;8808;52.478;13.378;2023-07-13T01:55:45;6.07;;;2.43;;
17380;SDS011;8808;52.478;13.378;2023-07-13T01:58:12;10.13;;;2.60;;
17380;SDS011;8808;52.478;13.378;2023-07-13T02:00:39;7.20;;;2.60;;
17380;SDS011;8808;52.478;13.378;2023-07-13T02:03:06;5.77;;;2.40;;
17380;SDS011;8808;52.478;13.378;2023-07-13T02:05:33;9.00;;;2.80;;
17380;SDS011;8808;52.478;13.378;2023-07-13T02:08:00;4.90;;;2.77;;
17380;SDS011;8808;52.478;13.378;2023-07-13T02:10:27;5.00;;;2.50;;
17380;SDS011;8808;52.478;13.378;2023-07-13T02:12:55;3.63;;;2.67;;
17380;SDS011;8808;52.478;13.378;2023-07-13T02:15:22;5.10;;;2.53;;
17380;SDS011;8808;52.478;13.378;2023-07-13T02:17:49;6.90;;;2.83;;
17380;SDS011;8808;52.478;13.378;2023-07-13T02:20:16;3.70;;;2.63;;
17380;SDS011;8808;52.478;13.378;2023-07-13T02:22:43;4.50;;;2.73;;
17380;SDS011;8808;52.478;13.378;2023-07-13T02:25:11;5.17;;;2.53;;
17380;SDS011;8808;52.478;13.378;2023-07-13T02:27:38;4.93;;;2.57;;
17380;SDS011;8808;52.478;13.378;2023-07-13T02:30:07;3.40;;;2.57;;
17380;SDS011;8808;52.478;13.378;2023-07-13T02:32:34;6.27;;;2.90;;
17380;SDS011;8808;52.478;13.378;2023-07-13T02:35:01;4.43;;;2.73;;
17380;SDS011;8808;52.478;13.378;2023-07-13T02:37:28;8.93;;;2.90;;
17380;SDS011;8808;52.478;13.378;2023-07-13T02:39:56;5.40;;;2.93;;
17380;SDS011;8808;52.478;13.378;2023-07-13T02:42:23;6.43;;;2.60;;
17380;SDS011;8808;52.478;13.378;2023-07-13T02:44:50;4.13;;;2.70;;
17380;SDS011;8808;52.478;13.378;2023-07-13T02:47:18;5.50;;;3.10;;
17380;SDS011;8808;52.478;13.378;2023-07-13T02:49:45;8.17;;;2.97;;
17380;SDS011;8808;52.478;13.378;2023-07-13T02:52:12;5.27;;;2.80;;
17380;SDS011;8808;52.478;13.378;2023-07-13T02:54:39;5.47;;;2.70;;
17380;SDS011;8808;52.478;13.378;2023-07-13T02:57:06;6.87;;;2.93;;
17380;SDS011;8808;52.478;13.378;2023-07-13T02:59:33;5.77;;;2.80;;
17380;SDS011;8808;52.478;13.378;2023-07-13T03:02:00;6.90;;;3.10;;
17380;SDS011;8808;52.478;13.378;2023-07-13T03:04:29;4.50;;;2.80;;
17380;SDS011;8808;52.478;13.378;2023-07-13T03:06:56;7.07;;;2.63;;
17380;SDS011;8808;52.478;13.378;2023-07-13T03:09:23;7.00;;;3.10;;
17380;SDS011;8808;52.478;13.378;2023-07-13T03:11:52;6.80;;;3.40;;
17380;SDS011;8808;52.478;13.378;2023-07-13T03:14:19;4.77;;;3.00;;
17380;SDS011;8808;52.478;13.378;2023-07-13T03:16:46;6.63;;;2.77;;
17380;SDS011;8808;52.478;13.378;2023-07-13T03:19:13;4.23;;;2.70;;
17380;SDS011;8808;52.478;13.378;2023-07-13T03:21:42;4.00;;;2.47;;
17380;SDS011;8808;52.478;13.378;2023-07-13T03:24:09;5.07;;;2.90;;
17380;SDS011;8808;52.478;13.378;2023-07-13T03:26:36;6.40;;;2.80;;
17380;SDS011;8808;52.478;13.378;2023-07-13T03:29:03;5.60;;;2.77;;
17380;SDS011;8808;52.478;13.378;2023-07-13T03:31:33;5.00;;;2.63;;
17380;SDS011;8808;52.478;13.378;2023-07-13T03:34:01;3.63;;;2.80;;
17380;SDS011;8808;52.478;13.378;2023-07-13T03:36:29;5.30;;;2.80;;
17380;SDS011;8808;52.478;13.378;2023-07-13T03:39:00;7.53;;;2.77;;
17380;SDS011;8808;52.478;13.378;2023-07-13T03:41:29;7.40;;;2.83;;
17380;SDS011;8808;52.478;13.378;2023-07-13T03:43:56;3.27;;;2.60;;
17380;SDS011;8808;52.478;13.378;2023-07-13T03:46:24;5.33;;;2.60;;
17380;SDS011;8808;52.478;13.378;2023-07-13T03:48:51;5.60;;;2.60;;
17380;SDS011;8808;52.478;13.378;2023-07-13T03:51:18;4.90;;;2.47;;
17380;SDS011;8808;52.478;13.378;2023-07-13T03:53:46;4.77;;;2.40;;
17380;SDS011;8808;52.478;13.378;2023-07-13T03:56:16;4.10;;;2.47;;
17380;SDS011;8808;52.478;13.378;2023-07-13T03:58:44;3.37;;;2.50;;
17380;SDS011;8808;52.478;13.378;2023-07-13T04:01:13;6.47;;;2.70;;
17380;SDS011;8808;52.478;13.378;2023-07-13T04:03:41;4.17;;;2.60;;
17380;SDS011;8808;52.478;13.378;2023-07-13T04:06:12;4.77;;;2.50;;
17380;SDS011;8808;52.478;13.378;2023-07-13T04:08:46;3.83;;;2.53;;
17380;SDS011;8808;52.478;13.378;2023-07-13T04:11:15;5.17;;;2.50;;
17380;SDS011;8808;52.478;13.378;2023-07-13T04:13:44;4.70;;;2.37;;
17380;SDS011;8808;52.478;13.378;2023-07-13T04:16:11;6.53;;;2.30;;
17380;SDS011;8808;52.478;13.378;2023-07-13T04:18:38;6.57;;;2.97;;
17380;SDS011;8808;52.478;13.378;2023-07-13T04:21:06;5.53;;;2.30;;
17380;SDS011;8808;52.478;13.378;2023-07-13T04:23:34;5.40;;;2.40;;
17380;SDS011;8808;52.478;13.378;2023-07-13T04:26:01;7.05;;;2.47;;
17380;SDS011;8808;52.478;13.378;2023-07-13T04:28:30;4.43;;;2.03;;
17380;SDS011;8808;52.478;13.378;2023-07-13T04:30:57;4.15;;;2.10;;
17380;SDS011;8808;52.478;13.378;2023-07-13T04:33:24;5.70;;;2.22;;
17380;SDS011;8808;52.478;13.378;2023-07-13T04:35:53;2.95;;;2.33;;
17380;SDS011;8808;52.478;13.378;2023-07-13T04:38:22;3.43;;;2.80;;
17380;SDS011;8808;52.478;13.378;2023-07-13T04:40:51;3.58;;;1.90;;
17380;SDS011;8808;52.478;13.378;2023-07-13T04:43:18;3.73;;;2.47;;
17380;SDS011;8808;52.478;13.378;2023-07-13T04:45:46;6.50;;;2.00;;
17380;SDS011;8808;52.478;13.378;2023-07-13T04:48:13;5.85;;;1.92;;
17380;SDS011;8808;52.478;13.378;2023-07-13T04:50:40;5.28;;;2.10;;
17380;SDS011;8808;52.478;13.378;2023-07-13T04:53:08;3.67;;;2.08;;
17380;SDS011;8808;52.478;13.378;2023-07-13T04:55:35;6.88;;;2.25;;
17380;SDS011;8808;52.478;13.378;2023-07-13T04:58:03;3.88;;;2.33;;
17380;SDS011;8808;52.478;13.378;2023-07-13T05:00:30;4.57;;;2.10;;
17380;SDS011;8808;52.478;13.378;2023-07-13T05:02:59;3.47;;;2.22;;
17380;SDS011;8808;52.478;13.378;2023-07-13T05:05:26;10.32;;;2.47;;
17380;SDS011;8808;52.478;13.378;2023-07-13T05:07:54;4.68;;;2.17;;
17380;SDS011;8808;52.478;13.378;2023-07-13T05:10:21;8.02;;;2.40;;
17380;SDS011;8808;52.478;13.378;2023-07-13T05:12:49;6.07;;;2.45;;
17380;SDS011;8808;52.478;13.378;2023-07-13T05:15:16;3.63;;;2.08;;
17380;SDS011;8808;52.478;13.378;2023-07-13T05:17:46;7.45;;;2.22;;
17380;SDS011;8808;52.478;13.378;2023-07-13T05:20:14;5.95;;;2.22;;
17380;SDS011;8808;52.478;13.378;2023-07-13T05:22:42;5.63;;;2.50;;
17380;SDS011;8808;52.478;13.378;2023-07-13T05:25:09;3.63;;;2.30;;
17380;SDS011;8808;52.478;13.378;2023-07-13T05:27:37;4.93;;;2.30;;
17380;SDS011;8808;52.478;13.378;2023-07-13T05:30:04;3.78;;;2.17;;
17380;SDS011;8808;52.478;13.378;2023-07-13T05:32:35;3.13;;;2.25;;
17380;SDS011;8808;52.478;13.378;2023-07-13T05:35:03;8.90;;;2.65;;
17380;SDS011;8808;52.478;13.378;2023-07-13T05:37:31;5.78;;;2.20;;
17380;SDS011;8808;52.478;13.378;2023-07-13T05:39:58;6.13;;;2.15;;
17380;SDS011;8808;52.478;13.378;2023-07-13T05:42:26;4.53;;;2.30;;
17380;SDS011;8808;52.478;13.378;2023-07-13T05:44:53;7.43;;;2.78;;
17380;SDS011;8808;52.478;13.378;2023-07-13T05:47:20;5.90;;;2.17;;
17380;SDS011;8808;52.478;13.378;2023-07-13T05:49:47;4.07;;;1.73;;
17380;SDS011;8808;52.478;13.378;2023-07-13T05:52:14;4.45;;;2.13;;
17380;SDS011;8808;52.478;13.378;2023-07-13T05:54:43;8.68;;;2.13;;
17380;SDS011;8808;52.478;13.378;2023-07-13T05:57:10;4.47;;;2.13;;
17380;SDS011;8808;52.478;13.378;2023-07-13T05:59:37;2.42;;;1.85;;
17380;SDS011;8808;52.478;13.378;2023-07-13T06:02:04;5.60;;;2.40;;
17380;SDS011;8808;52.478;13.378;2023-07-13T06:04:31;3.92;;;2.20;;
17380;SDS011;8808;52.478;13.378;2023-07-13T06:06:58;5.60;;;1.83;;
17380;SDS011;8808;52.478;13.378;2023-07-13T06:09:25;7.20;;;2.10;;
17380;SDS011;8808;52.478;13.378;2023-07-13T06:11:53;2.95;;;2.05;;
17380;SDS011;8808;52.478;13.378;2023-07-13T06:14:20;2.35;;;1.70;;
17380;SDS011;8808;52.478;13.378;2023-07-13T06:16:47;3.83;;;1.63;;
17380;SDS011;8808;52.478;13.378;2023-07-13T06:19:15;5.22;;;2.20;;
17380;SDS011;8808;52.478;13.378;2023-07-13T06:21:42;3.35;;;2.00;;
17380;SDS011;8808;52.478;13.378;2023-07-13T06:24:09;8.07;;;2.00;;
17380;SDS011;8808;52.478;13.378;2023-07-13T06:26:36;5.35;;;2.10;;
17380;SDS011;8808;52.478;13.378;2023-07-13T06:29:05;5.85;;;2.20;;
17380;SDS011;8808;52.478;13.378;2023-07-13T06:31:32;11.23;;;2.20;;
17380;SDS011;8808;52.478;13.378;2023-07-13T06:33:59;5.47;;;1.80;;
17380;SDS011;8808;52.478;13.378;2023-07-13T06:36:26;4.10;;;2.00;;
17380;SDS011;8808;52.478;13.378;2023-07-13T06:38:53;3.00;;;1.60;;
17380;SDS011;8808;52.478;13.378;2023-07-13T06:41:20;5.07;;;1.35;;
17380;SDS011;8808;52.478;13.378;2023-07-13T06:43:47;6.22;;;1.80;;
17380;SDS011;8808;52.478;13.378;2023-07-13T06:46:16;2.33;;;1.67;;
17380;SDS011;8808;52.478;13.378;2023-07-13T06:48:43;1.98;;;1.40;;
17380;SDS011;8808;52.478;13.378;2023-07-13T06:51:10;5.72;;;1.85;;
17380;SDS011;8808;52.478;13.378;2023-07-13T06:53:37;1.95;;;1.35;;
17380;SDS011;8808;52.478;13.378;2023-07-13T06:56:04;1.73;;;1.58;;
17380;SDS011;8808;52.478;13.378;2023-07-13T06:58:33;3.55;;;1.50;;
17380;SDS011;8808;52.478;13.378;2023-07-13T07:01:01;3.08;;;1.50;;
17380;SDS011;8808;52.478;13.378;2023-07-13T07:03:29;2.72;;;1.30;;
17380;SDS011;8808;52.478;13.378;2023-07-13T07:05:59;4.85;;;1.38;;
17380;SDS011;8808;52.478;13.378;2023-07-13T07:08:27;3.80;;;3.10;;
17380;SDS011;8808;52.478;13.378;2023-07-13T07:10:54;3.03;;;1.40;;
17380;SDS011;8808;52.478;13.378;2023-07-13T07:13:21;4.20;;;1.33;;
17380;SDS011;8808;52.478;13.378;2023-07-13T07:15:49;2.78;;;1.58;;
17380;SDS011;8808;52.478;13.378;2023-07-13T07:18:16;3.20;;;1.60;;
17380;SDS011;8808;52.478;13.378;2023-07-13T07:20:44;4.18;;;1.30;;
17380;SDS011;8808;52.478;13.378;2023-07-13T07:23:11;3.97;;;1.35;;
17380;SDS011;8808;52.478;13.378;2023-07-13T07:25:39;3.92;;;1.20;;
17380;SDS011;8808;52.478;13.378;2023-07-13T07:28:07;2.65;;;1.27;;
17380;SDS011;8808;52.478;13.378;2023-07-13T07:30:34;1.98;;;1.30;;
17380;SDS011;8808;52.478;13.378;2023-07-13T07:33:01;4.45;;;1.40;;
17380;SDS011;8808;52.478;13.378;2023-07-13T07:35:28;1.77;;;1.27;;
17380;SDS011;8808;52.478;13.378;2023-07-13T07:37:56;3.42;;;1.63;;
17380;SDS011;8808;52.478;13.378;2023-07-13T07:40:23;2.95;;;1.30;;
17380;SDS011;8808;52.478;13.378;2023-07-13T07:42:50;3.33;;;1.10;;
17380;SDS011;8808;52.478;13.378;2023-07-13T07:45:17;10.15;;;2.50;;
17380;SDS011;8808;52.478;13.378;2023-07-13T07:47:44;2.47;;;1.45;;
17380;SDS011;8808;52.478;13.378;2023-07-13T07:50:11;2.42;;;1.30;;
17380;SDS011;8808;52.478;13.378;2023-07-13T07:52:39;4.20;;;1.33;;
17380;SDS011;8808;52.478;13.378;2023-07-13T07:55:07;2.33;;;1.42;;
17380;SDS011;8808;52.478;13.378;2023-07-13T07:57:35;2.28;;;1.42;;
17380;SDS011;8808;52.478;13.378;2023-07-13T08:00:02;6.95;;;1.50;;
17380;SDS011;8808;52.478;13.378;2023-07-13T08:02:29;3.15;;;1.23;;
17380;SDS011;8808;52.478;13.378;2023-07-13T08:04:56;9.50;;;1.67;;
17380;SDS011;8808;52.478;13.378;2023-07-13T08:07:23;2.17;;;1.27;;
17380;SDS011;8808;52.478;13.378;2023-07-13T08:09:51;2.55;;;1.40;;
17380;SDS011;8808;52.478;13.378;2023-07-13T08:12:20;4.13;;;1.30;;
17380;SDS011;8808;52.478;13.378;2023-07-13T08:14:49;4.75;;;1.50;;
17380;SDS011;8808;52.478;13.378;2023-07-13T08:17:18;2.53;;;1.40;;
17380;SDS011;8808;52.478;13.378;2023-07-13T08:19:46;4.63;;;1.33;;
17380;SDS011;8808;52.478;13.378;2023-07-13T08:22:13;4.25;;;1.10;;
17380;SDS011;8808;52.478;13.378;2023-07-13T08:24:40;2.60;;;1.50;;
17380;SDS011;8808;52.478;13.378;2023-07-13T08:27:07;3.63;;;1.40;;
17380;SDS011;8808;52.478;13.378;2023-07-13T08:29:37;3.05;;;1.23;;
17380;SDS011;8808;52.478;13.378;2023-07-13T08:32:05;5.88;;;1.35;;
17380;SDS011;8808;52.478;13.378;2023-07-13T08:34:35;3.25;;;1.33;;
17380;SDS011;8808;52.478;13.378;2023-07-13T08:37:03;4.70;;;1.25;;
17380;SDS011;8808;52.478;13.378;2023-07-13T08:39:30;5.30;;;1.30;;
17380;SDS011;8808;52.478;13.378;2023-07-13T08:41:58;3.50;;;1.30;;
17380;SDS011;8808;52.478;13.378;2023-07-13T08:44:30;4.25;;;1.38;;
17380;SDS011;8808;52.478;13.378;2023-07-13T08:47:05;4.13;;;1.40;;
17380;SDS011;8808;52.478;13.378;2023-07-13T08:49:34;2.28;;;1.40;;
17380;SDS011;8808;52.478;13.378;2023-07-13T08:52:02;3.60;;;1.38;;
17380;SDS011;8808;52.478;13.378;2023-07-13T08:54:36;3.22;;;1.30;;
17380;SDS011;8808;52.478;13.378;2023-07-13T08:57:10;2.70;;;1.58;;
17380;SDS011;8808;52.478;13.378;2023-07-13T08:59:39;2.60;;;1.20;;
17380;SDS011;8808;52.478;13.378;2023-07-13T09:02:14;1.83;;;1.10;;
17380;SDS011;8808;52.478;13.378;2023-07-13T09:04:50;1.90;;;1.20;;
17380;SDS011;8808;52.478;13.378;2023-07-13T09:07:23;2.38;;;1.25;;
17380;SDS011;8808;52.478;13.378;2023-07-13T09:10:02;1.65;;;1.15;;
17380;SDS011;8808;52.478;13.378;2023-07-13T09:12:40;2.30;;;1.08;;
17380;SDS011;8808;52.478;13.378;2023-07-13T09:15:21;3.72;;;1.15;;
17380;SDS011;8808;52.478;13.378;2023-07-13T09:17:58;5.82;;;1.33;;
17380;SDS011;8808;52.478;13.378;2023-07-13T09:20:31;4.47;;;1.25;;
17380;SDS011;8808;52.478;13.378;2023-07-13T09:23:01;3.78;;;1.60;;
17380;SDS011;8808;52.478;13.378;2023-07-13T09:25:32;7.82;;;1.48;;
17380;SDS011;8808;52.478;13.378;2023-07-13T09:28:02;3.42;;;1.20;;
17380;SDS011;8808;52.478;13.378;2023-07-13T09:30:45;1.58;;;1.05;;
17380;SDS011;8808;52.478;13.378;2023-07-13T09:33:19;1.38;;;1.00;;
17380;SDS011;8808;52.478;13.378;2023-07-13T09:35:46;4.22;;;1.55;;
17380;SDS011;8808;52.478;13.378;2023-07-13T09:38:14;2.55;;;1.30;;
17380;SDS011;8808;52.478;13.378;2023-07-13T09:40:44;2.13;;;1.30;;
17380;SDS011;8808;52.478;13.378;2023-07-13T09:43:19;4.63;;;1.55;;
17380;SDS011;8808;52.478;13.378;2023-07-13T09:45:47;2.70;;;1.55;;
17380;SDS011;8808;52.478;13.378;2023-07-13T09:48:15;3.30;;;1.77;;
17380;SDS011;8808;52.478;13.378;2023-07-13T09:50:44;3.13;;;1.80;;
17380;SDS011;8808;52.478;13.378;2023-07-13T09:53:11;4.70;;;2.33;;
17380;SDS011;8808;52.478;13.378;2023-07-13T09:55:40;2.60;;;1.50;;
17380;SDS011;8808;52.478;13.378;2023-07-13T09:58:10;5.53;;;2.42;;
17380;SDS011;8808;52.478;13.378;2023-07-13T10:00:39;4.10;;;2.40;;
17380;SDS011;8808;52.478;13.378;2023-07-13T10:03:18;13.65;;;2.58;;
17380;SDS011;8808;52.478;13.378;2023-07-13T10:05:50;4.25;;;2.20;;
17380;SDS011;8808;52.478;13.378;2023-07-13T10:08:20;5.95;;;2.20;;
17380;SDS011;8808;52.478;13.378;2023-07-13T10:10:53;3.10;;;1.80;;
17380;SDS011;8808;52.478;13.378;2023-07-13T10:13:25;4.78;;;1.58;;
17380;SDS011;8808;52.478;13.378;2023-07-13T10:15:55;3.00;;;2.05;;
17380;SDS011;8808;52.478;13.378;2023-07-13T10:18:23;2.75;;;1.75;;
17380;SDS011;8808;52.478;13.378;2023-07-13T10:20:54;3.55;;;2.17;;
17380;SDS011;8808;52.478;13.378;2023-07-13T10:23:35;5.97;;;1.85;;
17380;SDS011;8808;52.478;13.378;2023-07-13T10:26:02;2.90;;;2.08;;
17380;SDS011;8808;52.478;13.378;2023-07-13T10:28:31;5.25;;;2.15;;
17380;SDS011;8808;52.478;13.378;2023-07-13T10:31:02;8.85;;;2.10;;
17380;SDS011;8808;52.478;13.378;2023-07-13T10:33:36;3.88;;;1.90;;
17380;SDS011;8808;52.478;13.378;2023-07-13T10:36:06;3.30;;;1.90;;
17380;SDS011;8808;52.478;13.378;2023-07-13T10:38:40;5.05;;;2.30;;
17380;SDS011;8808;52.478;13.378;2023-07-13T10:41:09;4.53;;;2.22;;
17380;SDS011;8808;52.478;13.378;2023-07-13T10:43:41;4.35;;;2.03;;
17380;SDS011;8808;52.478;13.378;2023-07-13T10:46:11;4.30;;;1.98;;
17380;SDS011;8808;52.478;13.378;2023-07-13T10:48:42;2.25;;;1.77;;
17380;SDS011;8808;52.478;13.378;2023-07-13T10:51:13;2.72;;;1.73;;
17380;SDS011;8808;52.478;13.378;2023-07-13T10:53:41;3.45;;;1.42;;
17380;SDS011;8808;52.478;13.378;2023-07-13T10:56:18;6.57;;;2.05;;
17380;SDS011;8808;52.478;13.378;2023-07-13T10:58:50;3.08;;;1.58;;
17380;SDS011;8808;52.478;13.378;2023-07-13T11:01:39;3.70;;;1.70;;
17380;SDS011;8808;52.478;13.378;2023-07-13T11:04:08;3.15;;;1.92;;
17380;SDS011;8808;52.478;13.378;2023-07-13T11:06:41;5.35;;;2.20;;
17380;SDS011;8808;52.478;13.378;2023-07-13T11:09:32;3.08;;;1.58;;
17380;SDS011;8808;52.478;13.378;2023-07-13T11:12:05;4.70;;;2.15;;
17380;SDS011;8808;52.478;13.378;2023-07-13T11:14:35;4.28;;;1.73;;
17380;SDS011;8808;52.478;13.378;2023-07-13T11:20:23;2.72;;;1.33;;
17380;SDS011;8808;52.478;13.378;2023-07-13T11:23:16;4.57;;;1.85;;
17380;SDS011;8808;52.478;13.378;2023-07-13T11:25:55;2.60;;;1.80;;
17380;SDS011;8808;52.478;13.378;2023-07-13T11:28:23;3.92;;;1.92;;
17380;SDS011;8808;52.478;13.378;2023-07-13T11:33:53;5.95;;;1.70;;
17380;SDS011;8808;52.478;13.378;2023-07-13T11:36:27;7.80;;;1.70;;
17380;SDS011;8808;52.478;13.378;2023-07-13T11:39:05;2.50;;;1.92;;
17380;SDS011;8808;52.478;13.378;2023-07-13T11:41:43;7.55;;;2.15;;
17380;SDS011;8808;52.478;13.378;2023-07-13T11:44:12;7.25;;;2.35;;
17380;SDS011;8808;52.478;13.378;2023-07-13T11:46:44;4.97;;;1.63;;
17380;SDS011;8808;52.478;13.378;2023-07-13T11:49:13;5.25;;;1.60;;
17380;SDS011;8808;52.478;13.378;2023-07-13T11:51:43;4.88;;;1.77;;
17380;SDS011;8808;52.478;13.378;2023-07-13T11:54:17;2.55;;;1.80;;
17380;SDS011;8808;52.478;13.378;2023-07-13T11:56:50;3.40;;;1.95;;
17380;SDS011;8808;52.478;13.378;2023-07-13T11:59:17;4.55;;;1.48;;
17380;SDS011;8808;52.478;13.378;2023-07-13T12:01:47;7.68;;;1.92;;
17380;SDS011;8808;52.478;13.378;2023-07-13T12:04:19;2.35;;;1.30;;
17380;SDS011;8808;52.478;13.378;2023-07-13T12:06:53;1.73;;;1.40;;
17380;SDS011;8808;52.478;13.378;2023-07-13T12:09:26;2.83;;;1.55;;
17380;SDS011;8808;52.478;13.378;2023-07-13T12:11:56;7.30;;;1.90;;
17380;SDS011;8808;52.478;13.378;2023-07-13T12:14:25;5.82;;;1.80;;
17380;SDS011;8808;52.478;13.378;2023-07-13T12:16:52;5.57;;;2.13;;
17380;SDS011;8808;52.478;13.378;2023-07-13T12:19:20;1.95;;;1.42;;
17380;SDS011;8808;52.478;13.378;2023-07-13T12:21:49;2.63;;;1.42;;
17380;SDS011;8808;52.478;13.378;2023-07-13T12:24:19;2.63;;;1.60;;
17380;SDS011;8808;52.478;13.378;2023-07-13T12:26:52;2.80;;;1.20;;
17380;SDS011;8808;52.478;13.378;2023-07-13T12:29:20;1.55;;;1.10;;
17380;SDS011;8808;52.478;13.378;2023-07-13T12:31:48;6.65;;;1.70;;
17380;SDS011;8808;52.478;13.378;2023-07-13T12:34:18;3.63;;;1.70;;
17380;SDS011;8808;52.478;13.378;2023-07-13T12:36:46;5.45;;;1.80;;
17380;SDS011;8808;52.478;13.378;2023-07-13T12:39:16;5.18;;;1.77;;
17380;SDS011;8808;52.478;13.378;2023-07-13T12:41:45;5.57;;;1.83;;
17380;SDS011;8808;52.478;13.378;2023-07-13T12:44:15;3.63;;;1.77;;
17380;SDS011;8808;52.478;13.378;2023-07-13T12:46:52;3.10;;;1.65;;
17380;SDS011;8808;52.478;13.378;2023-07-13T12:49:23;4.13;;;1.48;;
17380;SDS011;8808;52.478;13.378;2023-07-13T12:51:55;1.50;;;1.40;;
17380;SDS011;8808;52.478;13.378;2023-07-13T12:54:24;2.88;;;1.20;;
17380;SDS011;8808;52.478;13.378;2023-07-13T12:56:53;2.05;;;1.25;;
17380;SDS011;8808;52.478;13.378;2023-07-13T12:59:25;3.10;;;1.30;;
17380;SDS011;8808;52.478;13.378;2023-07-13T13:01:58;3.15;;;1.38;;
17380;SDS011;8808;52.478;13.378;2023-07-13T13:04:26;5.10;;;1.67;;
17380;SDS011;8808;52.478;13.378;2023-07-13T13:07:00;3.45;;;1.30;;
17380;SDS011;8808;52.478;13.378;2023-07-13T13:09:29;2.05;;;1.30;;
17380;SDS011;8808;52.478;13.378;2023-07-13T13:11:56;3.85;;;1.33;;
17380;SDS011;8808;52.478;13.378;2023-07-13T13:14:24;4.28;;;1.58;;
17380;SDS011;8808;52.478;13.378;2023-07-13T13:16:52;5.88;;;1.35;;
17380;SDS011;8808;52.478;13.378;2023-07-13T13:19:20;3.80;;;1.35;;
17380;SDS011;8808;52.478;13.378;2023-07-13T13:21:50;2.85;;;1.30;;
17380;SDS011;8808;52.478;13.378;2023-07-13T13:24:20;4.03;;;1.52;;
17380;SDS011;8808;52.478;13.378;2023-07-13T13:26:49;7.72;;;2.17;;
17380;SDS011;8808;52.478;13.378;2023-07-13T13:29:17;5.30;;;1.20;;
17380;SDS011;8808;52.478;13.378;2023-07-13T13:31:47;3.85;;;1.58;;
17380;SDS011;8808;52.478;13.378;2023-07-13T13:34:15;5.72;;;1.52;;
17380;SDS011;8808;52.478;13.378;2023-07-13T13:36:44;3.20;;;1.23;;
17380;SDS011;8808;52.478;13.378;2023-07-13T13:39:17;2.25;;;1.13;;
17380;SDS011;8808;52.478;13.378;2023-07-13T13:41:47;1.70;;;1.08;;
17380;SDS011;8808;52.478;13.378;2023-07-13T13:44:15;4.65;;;1.35;;
17380;SDS011;8808;52.478;13.378;2023-07-13T13:46:43;2.30;;;1.20;;
17380;SDS011;8808;52.478;13.378;2023-07-13T13:49:14;5.93;;;1.40;;
17380;SDS011;8808;52.478;13.378;2023-07-13T13:51:43;6.60;;;1.75;;
17380;SDS011;8808;52.478;13.378;2023-07-13T13:54:11;5.05;;;1.50;;
17380;SDS011;8808;52.478;13.378;2023-07-13T13:56:41;1.92;;;1.33;;
17380;SDS011;8808;52.478;13.378;2023-07-13T13:59:08;2.58;;;1.17;;
17380;SDS011;8808;52.478;13.378;2023-07-13T14:01:35;4.70;;;1.27;;
17380;SDS011;8808;52.478;13.378;2023-07-13T14:04:05;1.20;;;1.00;;
17380;SDS011;8808;52.478;13.378;2023-07-13T14:06:33;2.53;;;1.38;;
17380;SDS011;8808;52.478;13.378;2023-07-13T14:09:00;1.92;;;1.20;;
17380;SDS011;8808;52.478;13.378;2023-07-13T14:11:29;2.83;;;1.35;;
17380;SDS011;8808;52.478;13.378;2023-07-13T14:13:58;2.53;;;1.20;;
17380;SDS011;8808;52.478;13.378;2023-07-13T14:16:28;5.50;;;1.50;;
17380;SDS011;8808;52.478;13.378;2023-07-13T14:18:58;1.88;;;1.67;;
17380;SDS011;8808;52.478;13.378;2023-07-13T14:21:27;2.45;;;1.10;;
17380;SDS011;8808;52.478;13.378;2023-07-13T14:23:55;4.28;;;1.20;;
17380;SDS011;8808;52.478;13.378;2023-07-13T14:26:24;2.25;;;1.15;;
17380;SDS011;8808;52.478;13.378;2023-07-13T14:28:53;2.80;;;1.45;;
17380;SDS011;8808;52.478;13.378;2023-07-13T14:31:22;1.88;;;1.00;;
17380;SDS011;8808;52.478;13.378;2023-07-13T14:33:50;3.13;;;1.45;;
17380;SDS011;8808;52.478;13.378;2023-07-13T14:36:21;3.22;;;1.42;;
17380;SDS011;8808;52.478;13.378;2023-07-13T14:38:57;2.60;;;1.17;;
17380;SDS011;8808;52.478;13.378;2023-07-13T14:41:25;3.78;;;1.20;;
17380;SDS011;8808;52.478;13.378;2023-07-13T14:43:53;2.28;;;1.20;;
17380;SDS011;8808;52.478;13.378;2023-07-13T14:46:28;2.17;;;1.13;;
17380;SDS011;8808;52.478;13.378;2023-07-13T14:48:59;1.73;;;0.82;;
17380;SDS011;8808;52.478;13.378;2023-07-13T14:51:30;4.30;;;1.27;;
17380;SDS011;8808;52.478;13.378;2023-07-13T14:54:01;1.70;;;1.10;;
17380;SDS011;8808;52.478;13.378;2023-07-13T14:56:29;4.57;;;1.30;;
17380;SDS011;8808;52.478;13.378;2023-07-13T14:58:56;3.40;;;1.10;;
17380;SDS011;8808;52.478;13.378;2023-07-13T15:01:24;3.30;;;1.08;;
17380;SDS011;8808;52.478;13.378;2023-07-13T15:03:52;3.20;;;1.10;;
17380;SDS011;8808;52.478;13.378;2023-07-13T15:06:19;6.57;;;0.85;;
17380;SDS011;8808;52.478;13.378;2023-07-13T15:08:48;2.35;;;0.98;;
17380;SDS011;8808;52.478;13.378;2023-07-13T15:11:15;11.38;;;1.20;;